createdAt,value
2022-09-10T00:00:43.594Z,16.37
2022-09-10T00:05:46.445Z,16.48
2022-09-10T00:10:52.062Z,16.43
2022-09-10T00:15:54.858Z,16.50
2022-09-10T00:20:58.804Z,16.47
2022-09-10T00:26:00.458Z,16.42
2022-09-10T00:31:03.477Z,16.47
2022-09-10T00:36:14.179Z,16.47
2022-09-10T00:41:17.949Z,16.54
2022-09-10T00:46:31.640Z,16.60
2022-09-10T00:51:35.765Z,16.63
2022-09-10T00:56:37.877Z,16.66
2022-09-10T01:01:40.535Z,16.68
2022-09-10T01:06:45.752Z,16.60
2022-09-10T01:12:13.067Z,16.57
2022-09-10T01:17:37.437Z,16.50
2022-09-10T01:23:06.475Z,16.38
2022-09-10T01:28:33.642Z,16.31
2022-09-10T01:33:43.103Z,16.30
2022-09-10T01:38:50.119Z,16.22
2022-09-10T01:43:52.120Z,16.12
2022-09-10T01:49:14.938Z,16.02
2022-09-10T01:54:37.160Z,15.94
2022-09-10T01:59:50.923Z,16.03
2022-09-10T02:04:54.684Z,15.93
2022-09-10T02:09:57.459Z,15.88
2022-09-10T02:15:01.399Z,15.66
2022-09-10T02:20:22.138Z,15.48
2022-09-10T02:25:33.342Z,15.22
2022-09-10T02:30:37.292Z,14.94
2022-09-10T02:35:39.149Z,14.73
2022-09-10T02:40:40.789Z,14.65
2022-09-10T02:45:43.913Z,14.42
2022-09-10T02:50:46.279Z,14.48
2022-09-10T02:55:48.893Z,14.52
2022-09-10T03:00:50.856Z,14.26
2022-09-10T03:05:52.682Z,13.94
2022-09-10T03:10:55.903Z,13.98
2022-09-10T03:15:58.918Z,13.93
2022-09-10T03:21:09.890Z,14.07
2022-09-10T03:26:14.454Z,14.01
2022-09-10T03:31:18.241Z,13.82
2022-09-10T03:36:22.960Z,13.72
2022-09-10T03:41:28.333Z,13.64
2022-09-10T03:46:33.316Z,13.69
2022-09-10T03:51:37.033Z,13.58
2022-09-10T03:56:39.881Z,13.35
2022-09-10T04:01:43.750Z,13.37
2022-09-10T04:06:45.541Z,13.39
2022-09-10T04:11:49.779Z,13.39
2022-09-10T04:16:52.422Z,13.21
2022-09-10T04:21:54.616Z,13.21
2022-09-10T04:26:57.823Z,12.93
2022-09-10T04:31:59.728Z,12.88
2022-09-10T04:37:06.177Z,12.64
2022-09-10T04:42:09.879Z,12.39
2022-09-10T04:47:12.396Z,12.45
2022-09-10T04:52:17.198Z,12.64
2022-09-10T04:57:19.679Z,12.59
2022-09-10T05:02:21.864Z,12.59
2022-09-10T05:07:24.142Z,12.84
2022-09-10T05:12:26.443Z,13.03
2022-09-10T05:17:28.155Z,12.96
2022-09-10T05:22:37.246Z,13.22
2022-09-10T05:27:42.003Z,13.39
2022-09-10T05:32:47.544Z,13.39
2022-09-10T05:37:50.772Z,13.24
2022-09-10T05:42:54.038Z,13.40
2022-09-10T05:47:57.271Z,13.33
2022-09-10T05:52:59.113Z,13.60
2022-09-10T05:58:03.066Z,13.93
2022-09-10T06:03:06.034Z,17.98
2022-09-10T06:08:24.149Z,17.66
2022-09-10T06:13:28.162Z,17.26
2022-09-10T06:18:32.031Z,16.51
2022-09-10T06:23:36.274Z,16.76
2022-09-10T06:28:38.469Z,16.16
2022-09-10T06:33:41.433Z,16.46
2022-09-10T06:38:45.188Z,16.87
2022-09-10T06:43:47.823Z,17.12
2022-09-10T06:49:06.202Z,17.14
2022-09-10T06:54:10.427Z,17.33
2022-09-10T06:59:14.735Z,17.49
2022-09-10T07:04:21.851Z,18.06
2022-09-10T07:09:24.162Z,18.40
2022-09-10T07:14:34.376Z,18.15
2022-09-10T07:19:39.816Z,18.83
2022-09-10T07:24:53.990Z,18.59
2022-09-10T07:30:04.941Z,18.98
2022-09-10T07:35:09.961Z,19.04
2022-09-10T07:40:13.612Z,20.57
2022-09-10T07:45:16.272Z,23.92
2022-09-10T07:50:19.345Z,20.19
2022-09-10T07:55:25.118Z,18.85
2022-09-10T08:00:28.114Z,19.01
2022-09-10T08:05:37.407Z,19.42
2022-09-10T08:10:39.182Z,19.32
2022-09-10T08:15:43.827Z,19.34
2022-09-10T08:20:46.036Z,18.78
2022-09-10T08:25:52.312Z,19.22
2022-09-10T08:31:01.949Z,20.76
2022-09-10T08:36:10.587Z,24.49
2022-09-10T08:41:21.912Z,29.89
2022-09-10T08:46:42.184Z,26.04
2022-09-10T08:51:56.876Z,21.38
2022-09-10T08:57:00.760Z,22.83
2022-09-10T09:02:37.903Z,22.68
2022-09-10T09:07:42.728Z,25.16
2022-09-10T09:13:08.559Z,25.82
2022-09-10T09:18:36.842Z,26.85
2022-09-10T09:24:13.482Z,25.38
2022-09-10T09:29:31.420Z,23.31
2022-09-10T09:34:41.769Z,22.69
2022-09-10T09:40:04.836Z,21.65
2022-09-10T09:45:28.481Z,25.03
2022-09-10T09:50:33.613Z,30.29
2022-09-10T09:55:43.166Z,31.67
2022-09-10T10:00:45.009Z,30.58
2022-09-10T10:05:48.244Z,30.16
2022-09-10T10:10:52.210Z,30.39
2022-09-10T10:15:54.236Z,27.67
2022-09-10T10:21:18.838Z,31.24
2022-09-10T10:26:24.445Z,29.58
2022-09-10T10:31:41.258Z,26.21
2022-09-10T10:37:04.339Z,25.61
2022-09-10T10:42:17.409Z,27.41
2022-09-10T10:47:25.474Z,32.04
2022-09-10T10:53:02.695Z,31.36
2022-09-10T10:58:20.351Z,26.27
2022-09-10T11:03:31.684Z,25.17
2022-09-10T11:08:42.616Z,23.44
2022-09-10T11:14:17.126Z,23.18
2022-09-10T11:19:31.312Z,23.57
2022-09-10T11:24:47.066Z,21.70
2022-09-10T11:30:02.917Z,21.35
2022-09-10T11:35:19.889Z,20.34
2022-09-10T11:40:31.189Z,21.26
2022-09-10T11:45:49.065Z,21.18
2022-09-10T11:51:28.107Z,21.04
2022-09-10T11:56:52.926Z,20.03
2022-09-10T12:02:20.777Z,20.64
2022-09-10T12:07:43.248Z,20.56
2022-09-10T12:12:49.843Z,20.31
2022-09-10T12:17:59.217Z,25.18
2022-09-10T12:23:01.431Z,24.02
2022-09-10T12:28:24.925Z,22.93
2022-09-10T12:33:35.029Z,22.40
2022-09-10T12:39:16.466Z,24.07
2022-09-10T12:44:44.805Z,24.60
2022-09-10T12:50:01.614Z,22.96
2022-09-10T12:55:49.168Z,21.71
2022-09-10T13:00:58.250Z,25.86
2022-09-10T13:06:04.347Z,26.79
2022-09-10T13:11:18.320Z,25.66
2022-09-10T13:16:41.460Z,24.96
2022-09-10T13:21:43.008Z,23.21
2022-09-10T13:26:50.571Z,24.87
2022-09-10T13:32:02.074Z,25.68
2022-09-10T13:37:20.784Z,25.67
2022-09-10T13:42:25.666Z,23.56
2022-09-10T13:47:36.537Z,22.25
2022-09-10T13:52:39.232Z,22.55
2022-09-10T13:57:44.780Z,22.33
2022-09-10T14:02:50.686Z,23.10
2022-09-10T14:07:55.988Z,23.12
2022-09-10T14:12:58.875Z,21.75
2022-09-10T14:18:01.117Z,21.73
2022-09-10T14:23:15.605Z,21.40
2022-09-10T14:28:17.241Z,21.42
2022-09-10T14:33:31.991Z,21.89
2022-09-10T14:38:39.501Z,21.51
2022-09-10T14:43:41.294Z,21.20
2022-09-10T14:49:07.985Z,20.88
2022-09-10T14:54:11.806Z,20.57
2022-09-10T14:59:32.499Z,20.60
2022-09-10T15:04:34.126Z,20.31
2022-09-10T15:09:35.866Z,20.11
2022-09-10T15:14:37.959Z,19.68
2022-09-10T15:19:39.571Z,19.46
2022-09-10T15:24:59.021Z,19.46
2022-09-10T15:30:03.156Z,19.75
2022-09-10T15:35:05.372Z,19.90
2022-09-10T15:40:07.950Z,18.92
2022-09-10T15:45:10.065Z,18.61
2022-09-10T15:50:12.700Z,18.55
2022-09-10T15:55:14.443Z,18.91
2022-09-10T16:00:17.451Z,18.94
2022-09-10T16:05:21.185Z,19.50
2022-09-10T16:10:23.288Z,19.62
2022-09-10T16:15:24.915Z,19.52
2022-09-10T16:20:26.639Z,19.58
2022-09-10T16:25:31.115Z,19.30
2022-09-10T16:30:32.694Z,19.42
2022-09-10T16:35:35.688Z,19.26
2022-09-10T16:40:37.354Z,19.15
2022-09-10T16:45:49.408Z,18.83
2022-09-10T16:50:51.183Z,18.60
2022-09-10T16:55:52.972Z,18.41
2022-09-10T17:00:54.849Z,18.34
2022-09-10T17:05:57.587Z,18.14
2022-09-10T17:10:59.236Z,17.98
2022-09-10T17:16:24.724Z,17.89
2022-09-10T17:21:28.395Z,17.61
2022-09-10T17:26:31.626Z,17.33
2022-09-10T17:31:34.163Z,17.27
2022-09-10T17:36:36.924Z,17.11
2022-09-10T17:41:39.700Z,16.99
2022-09-10T17:46:42.838Z,16.71
2022-09-10T17:51:44.778Z,16.78
2022-09-10T17:56:46.489Z,16.38
2022-09-10T18:01:48.281Z,16.20
2022-09-10T18:06:52.399Z,16.20
2022-09-10T18:11:56.455Z,16.29
2022-09-10T18:16:58.839Z,16.33
2022-09-10T18:22:01.488Z,16.28
2022-09-10T18:27:05.331Z,16.05
2022-09-10T18:32:08.596Z,16.21
2022-09-10T18:37:10.190Z,16.09
2022-09-10T18:42:12.849Z,15.87
2022-09-10T18:47:34.156Z,15.78
2022-09-10T18:52:36.057Z,15.90
2022-09-10T18:57:37.877Z,16.02
2022-09-10T19:02:39.879Z,16.03
2022-09-10T19:07:41.557Z,15.84
2022-09-10T19:12:43.312Z,15.78
2022-09-10T19:17:44.917Z,15.86
2022-09-10T19:22:46.772Z,15.90
2022-09-10T19:27:48.385Z,15.77
2022-09-10T19:32:50.147Z,15.82
2022-09-10T19:37:51.728Z,15.95
2022-09-10T19:42:53.996Z,16.06
2022-09-10T19:47:55.944Z,16.11
2022-09-10T19:52:57.585Z,16.10
2022-09-10T19:58:00.075Z,16.21
2022-09-10T20:03:01.698Z,16.14
2022-09-10T20:08:04.816Z,16.12
2022-09-10T20:13:08.068Z,16.09
2022-09-10T20:18:09.649Z,16.19
2022-09-10T20:23:11.328Z,16.13
2022-09-10T20:28:14.360Z,16.11
2022-09-10T20:33:16.659Z,16.05
2022-09-10T20:38:18.279Z,15.84
2022-09-10T20:43:20.134Z,15.80
2022-09-10T20:48:21.752Z,15.85
2022-09-10T20:53:23.560Z,15.96
2022-09-10T20:58:25.142Z,15.88
2022-09-10T21:03:30.280Z,15.62
2022-09-10T21:08:31.918Z,15.69
2022-09-10T21:13:34.263Z,15.76
2022-09-10T21:18:36.958Z,15.83
2022-09-10T21:23:43.788Z,16.09
2022-09-10T21:28:45.408Z,16.09
2022-09-10T21:33:47.120Z,16.06
2022-09-10T21:38:56.564Z,15.94
2022-09-10T21:44:00.172Z,15.95
2022-09-10T21:49:03.452Z,15.83
2022-09-10T21:54:05.627Z,15.94
2022-09-10T21:59:07.773Z,15.95
2022-09-10T22:04:11.269Z,15.91
2022-09-10T22:09:15.600Z,15.84
2022-09-10T22:14:22.646Z,15.71
2022-09-10T22:19:25.909Z,15.56
2022-09-10T22:24:27.554Z,15.66
2022-09-10T22:29:29.299Z,15.63
2022-09-10T22:34:30.888Z,15.59
2022-09-10T22:39:32.517Z,15.61
2022-09-10T22:44:34.139Z,15.44
2022-09-10T22:49:37.236Z,15.37
2022-09-10T22:54:38.876Z,15.39
2022-09-10T22:59:40.456Z,15.68
2022-09-10T23:04:42.847Z,15.69
2022-09-10T23:09:44.483Z,15.63
2022-09-10T23:14:46.120Z,15.64
2022-09-10T23:19:47.722Z,15.96
2022-09-10T23:24:49.349Z,15.81
2022-09-10T23:29:50.959Z,15.79
2022-09-10T23:34:53.377Z,15.86
2022-09-10T23:39:55.024Z,15.83
2022-09-10T23:44:57.264Z,15.73
2022-09-10T23:49:58.925Z,15.77
2022-09-10T23:55:00.520Z,15.76
